PWSweather.com
Personal Weather Stations
Station Observations
KWAGIGHA17
Gig Harbor, WA 98332

Gig Harbor, WA 98332

Lat: 47.35323, Lon: -122.58817

Elevation: 318

Station Type: Davis VP2 Wireless

http://www.gigharborweather.com

Latest ConditionsUpdated 4:00:01 AM PST Tuesday, Dec 6, 2016
Currently Today's Max Today's Min Today's Average
Temperature 34.2°F1.2°C 34.5°F1.4°C 34.2°F1.2°C 34.3°F1.3°C
Dew Point 31.3°F-0.4°C 31.8°F-0.1°C 31.3°F-0.4°C 31.6°F-0.2°C
Winds Calm Calm 1.2 mph N1.9 kmh N - 0.0 mph 0.0 kmh
Wind Gusts 1.2 mph1.9 kmh 1.2 mph1.9 kmh - -
Humidity 89% 90% 89% 90%
Pressure 30.03 in1016.9 mb 30.03 in1016.9 mb 30.00 in1015.9 mb -
Precipitation - 0.06 in1.5 mm - -
Hour Temp Dew Point Humidity Winds Wind Gusts Pressure Precip Precip Rate Daily Precip Total
04:00 AM 34.2°F1.2°C 31.3°F-0.4°C 89% Calm Calm 1.2 mph1.9 kmh 30.03 in1016.9 mb - 0.00 in0.0 mm 0.06 in1.5 mm
03:50 AM 34.3°F1.3°C 31.7°F-0.2°C 90% Calm Calm 1.2 mph1.9 kmh 30.03 in1016.9 mb - 0.00 in0.0 mm 0.06 in1.5 mm
03:40 AM 34.3°F1.3°C 31.7°F-0.2°C 90% Calm Calm -- 30.02 in1016.6 mb - 0.00 in0.0 mm 0.06 in1.5 mm
03:30 AM 34.4°F1.3°C 31.7°F-0.2°C 90% Calm Calm -- 30.02 in1016.6 mb - 0.00 in0.0 mm 0.06 in1.5 mm
03:20 AM 34.4°F1.3°C 31.8°F-0.1°C 90% Calm Calm -- 30.02 in1016.6 mb - 0.00 in0.0 mm 0.06 in1.5 mm
03:10 AM 34.4°F1.3°C 31.8°F-0.1°C 90% Calm Calm -- 30.02 in1016.6 mb - 0.00 in0.0 mm 0.06 in1.5 mm
03:00 AM 34.5°F1.4°C 31.6°F-0.2°C 89% Calm Calm 1.2 mph1.9 kmh 30.02 in1016.6 mb - 0.00 in0.0 mm 0.06 in1.5 mm
02:50 AM 34.5°F1.4°C 31.6°F-0.2°C 89% 1.2 mph N1.9 kmh N 1.2 mph1.9 kmh 30.02 in1016.6 mb - 0.01 in0.3 mm 0.06 in1.5 mm
02:40 AM 34.5°F1.4°C 31.6°F-0.2°C 89% Calm Calm 1.2 mph1.9 kmh 30.02 in1016.6 mb - 0.00 in0.0 mm 0.05 in1.3 mm
02:30 AM 34.4°F1.3°C 31.8°F-0.1°C 90% Calm Calm -- 30.02 in1016.6 mb - 0.00 in0.0 mm 0.05 in1.3 mm
02:20 AM 34.4°F1.3°C 31.8°F-0.1°C 90% Calm Calm -- 30.01 in1016.3 mb - 0.00 in0.0 mm 0.05 in1.3 mm
02:10 AM 34.3°F1.3°C 31.7°F-0.2°C 90% Calm Calm -- 30.01 in1016.3 mb - 0.00 in0.0 mm 0.05 in1.3 mm
02:00 AM 34.3°F1.3°C 31.7°F-0.2°C 90% Calm Calm -- 30.01 in1016.3 mb - 0.00 in0.0 mm 0.05 in1.3 mm
01:50 AM 34.3°F1.3°C 31.7°F-0.2°C 90% Calm Calm -- 30.01 in1016.3 mb - 0.00 in0.0 mm 0.05 in1.3 mm
01:40 AM 34.3°F1.3°C 31.4°F-0.3°C 89% Calm Calm -- 30.01 in1016.3 mb - 0.01 in0.3 mm 0.05 in1.3 mm
01:30 AM 34.3°F1.3°C 31.7°F-0.2°C 90% Calm Calm -- 30.01 in1016.3 mb - 0.01 in0.3 mm 0.05 in1.3 mm
01:20 AM 34.3°F1.3°C 31.7°F-0.2°C 90% Calm Calm -- 30.01 in1016.3 mb - 0.00 in0.0 mm 0.04 in1.0 mm
01:10 AM 34.3°F1.3°C 31.7°F-0.2°C 90% Calm Calm -- 30.01 in1016.3 mb - 0.01 in0.3 mm 0.04 in1.0 mm
01:00 AM 34.3°F1.3°C 31.7°F-0.2°C 90% Calm Calm 1.2 mph1.9 kmh 30.00 in1015.9 mb - 0.01 in0.3 mm 0.03 in0.8 mm
12:50 AM 34.3°F1.3°C 31.7°F-0.2°C 90% Calm Calm -- 30.01 in1016.3 mb - 0.01 in0.3 mm 0.03 in0.8 mm
12:40 AM 34.2°F1.2°C 31.3°F-0.4°C 89% Calm Calm -- 30.00 in1015.9 mb - 0.00 in0.0 mm 0.02 in0.5 mm
12:30 AM 34.2°F1.2°C 31.3°F-0.4°C 89% Calm Calm -- 30.00 in1015.9 mb - 0.01 in0.3 mm 0.02 in0.5 mm
12:20 AM 34.2°F1.2°C 31.6°F-0.2°C 90% Calm Calm -- 30.00 in1015.9 mb - 0.01 in0.3 mm 0.02 in0.5 mm
12:10 AM 34.3°F1.3°C 31.7°F-0.2°C 90% Calm Calm -- 30.01 in1016.3 mb - 0.01 in0.3 mm 0.01 in0.3 mm
12:00 AM 34.3°F1.3°C 31.7°F-0.2°C 90% Calm Calm -- 30.01 in1016.3 mb - 0.00 in0.0 mm 0.00 in0.0 mm